Time;durP1;ratioP1;P1;durP2;ratioP2;P2;SDS_P1;SDS_P2;PMS_P1;PMS_P2;Temp;Humidity;BMP_temperature;BMP_pressure;BME280_temperature;BME280_humidity;BME280_pressure;Samples;Min_cycle;Max_cycle;Signal;HPM_P1;HPM_P2
2021/12/17 00:00:59;;;;;;;11.63;3.00;;;25.00;92.30;;;;;;5134601;27;20917;-90
2021/12/17 00:03:40;;;;;;;12.95;3.30;;;25.10;90.90;;;;;;5134639;27;20460;-88
2021/12/17 00:08:44;;;;;;;11.87;3.20;;;25.20;90.60;;;;;;5134533;27;20353;-90
2021/12/17 00:11:11;;;;;;;13.48;3.20;;;25.10;90.80;;;;;;5134221;27;20392;-88
2021/12/17 00:13:40;;;;;;;14.50;3.27;;;24.80;90.70;;;;;;5134184;27;20770;-89
2021/12/17 00:16:14;;;;;;;11.47;2.77;;;24.20;92.50;;;;;;5134249;27;20468;-90
2021/12/17 00:49:03;;;;;;;8.95;2.90;;;24.80;90.10;;;;;;5148503;27;20417;-88
2021/12/17 00:52:03;;;;;;;11.00;3.10;;;24.70;91.50;;;;;;5134163;27;20850;-87
2021/12/17 00:54:34;;;;;;;9.90;3.15;;;24.80;91.60;;;;;;5134532;27;20369;-88
2021/12/17 00:57:05;;;;;;;9.38;2.92;;;24.80;92.30;;;;;;5133633;27;20373;-88
2021/12/17 00:59:32;;;;;;;12.45;3.30;;;25.20;91.50;;;;;;5133470;27;20389;-90
2021/12/17 01:02:02;;;;;;;11.93;3.28;;;25.90;89.90;;;;;;5133206;27;20377;-88
2021/12/17 01:04:29;;;;;;;11.48;3.20;;;25.90;86.30;;;;;;5133620;27;20364;-90
2021/12/17 01:06:56;;;;;;;9.27;3.13;;;25.30;90.50;;;;;;5133011;27;20717;-89
2021/12/17 01:09:26;;;;;;;13.50;3.30;;;25.40;90.30;;;;;;5133107;27;20377;-87
2021/12/17 01:11:55;;;;;;;9.90;3.15;;;25.30;88.80;;;;;;5132986;27;20381;-90
2021/12/17 01:14:23;;;;;;;8.53;3.30;;;25.10;90.30;;;;;;5133338;27;20430;-92
2021/12/17 01:16:51;;;;;;;10.90;3.40;;;24.50;91.40;;;;;;5133048;27;20365;-88
2021/12/17 01:24:40;;;;;;;12.57;3.38;;;25.30;90.50;;;;;;5132923;27;20365;-91
2021/12/17 01:35:28;;;;;;;7.80;3.40;;;27.30;79.70;;;;;;5132968;27;20899;-87
2021/12/17 01:43:30;;;;;;;10.60;2.90;;;27.50;80.50;;;;;;5132848;27;20380;-92
2021/12/17 01:45:58;;;;;;;12.73;3.10;;;27.10;76.70;;;;;;5133106;27;20377;-88
2021/12/17 01:48:33;;;;;;;7.90;3.00;;;26.50;80.20;;;;;;5140555;27;20456;-90
2021/12/17 01:56:49;;;;;;;8.13;2.97;;;26.00;85.20;;;;;;5132853;27;20363;-88
2021/12/17 01:59:25;;;;;;;9.95;2.70;;;26.40;86.10;;;;;;5133159;27;20364;-90
2021/12/17 02:02:06;;;;;;;9.60;3.05;;;27.30;80.90;;;;;;5132780;27;20404;-92
2021/12/17 02:04:35;;;;;;;9.80;3.20;;;28.20;75.90;;;;;;5132511;27;20361;-89
2021/12/17 02:07:04;;;;;;;6.80;2.75;;;29.00;73.80;;;;;;5134878;27;20369;-90
2021/12/17 02:12:27;;;;;;;8.68;2.70;;;27.90;73.80;;;;;;5137217;27;20392;-89
2021/12/17 02:29:37;;;;;;;8.98;3.00;;;27.80;75.40;;;;;;5132292;27;20422;-92
2021/12/17 02:32:05;;;;;;;10.23;3.10;;;28.00;74.70;;;;;;5137743;27;20457;-91
2021/12/17 02:37:14;;;;;;;7.95;2.50;;;29.20;74.00;;;;;;5132426;27;20373;-91
2021/12/17 02:47:40;;;;;;;11.65;2.80;;;30.50;61.50;;;;;;5138575;27;20430;-86
2021/12/17 02:50:09;;;;;;;7.30;2.80;;;30.10;63.60;;;;;;5138418;27;20397;-88
2021/12/17 02:52:37;;;;;;;8.35;2.70;;;30.60;62.50;;;;;;5121262;27;20383;-87
2021/12/17 02:55:06;;;;;;;8.65;2.72;;;31.20;61.30;;;;;;5138271;27;20376;-87
2021/12/17 02:57:35;;;;;;;7.53;2.63;;;32.20;59.40;;;;;;5138318;27;20372;-89
2021/12/17 03:00:07;;;;;;;6.63;2.45;;;32.40;56.20;;;;;;5138338;27;20369;-90
2021/12/17 03:02:38;;;;;;;6.82;2.50;;;31.90;57.90;;;;;;5138145;27;20360;-89
2021/12/17 03:05:08;;;;;;;8.23;2.60;;;31.20;59.70;;;;;;5138169;27;20373;-86
2021/12/17 03:07:39;;;;;;;6.00;2.42;;;30.80;60.00;;;;;;5138204;27;20426;-92
2021/12/17 03:10:10;;;;;;;7.25;2.60;;;31.30;58.60;;;;;;5137796;27;20710;-87
2021/12/17 03:12:45;;;;;;;5.15;2.63;;;31.50;59.60;;;;;;5138111;27;20484;-88
2021/12/17 03:26:06;;;;;;;7.60;2.80;;;33.60;55.70;;;;;;5140483;27;20902;-87
2021/12/17 03:28:34;;;;;;;7.20;2.70;;;34.50;53.30;;;;;;5138015;27;20736;-89
2021/12/17 03:31:02;;;;;;;8.38;2.83;;;34.00;51.90;;;;;;5137822;27;20401;-90
2021/12/17 03:33:29;;;;;;;8.02;3.00;;;33.20;52.70;;;;;;5138188;27;20915;-87
2021/12/17 03:35:58;;;;;;;8.13;3.30;;;32.60;54.90;;;;;;5137662;27;20388;-89
2021/12/17 03:38:26;;;;;;;7.93;2.92;;;33.00;55.30;;;;;;5138118;27;20369;-88
2021/12/17 03:41:04;;;;;;;5.97;2.90;;;33.70;54.80;;;;;;5137954;27;20383;-87
2021/12/17 03:43:32;;;;;;;5.93;3.15;;;34.70;52.10;;;;;;5138055;27;20716;-86
2021/12/17 03:45:59;;;;;;;6.47;3.33;;;35.40;50.80;;;;;;5137992;27;20376;-88
2021/12/17 03:48:30;;;;;;;7.68;3.00;;;34.90;51.60;;;;;;5137847;27;20369;-86
2021/12/17 03:50:56;;;;;;;11.10;3.22;;;35.40;49.90;;;;;;5137707;27;20476;-87
2021/12/17 03:53:23;;;;;;;7.40;3.17;;;35.30;49.70;;;;;;5136933;27;20446;-89
2021/12/17 03:55:50;;;;;;;6.45;3.10;;;35.10;49.60;;;;;;5134262;27;20369;-86
2021/12/17 03:58:18;;;;;;;5.07;2.90;;;35.60;49.90;;;;;;5134735;27;20369;-86
2021/12/17 04:00:47;;;;;;;6.27;2.93;;;36.00;47.70;;;;;;5116688;27;20791;-87
2021/12/17 04:03:14;;;;;;;6.38;3.22;;;36.60;47.50;;;;;;5134925;27;20365;-87
2021/12/17 04:05:41;;;;;;;6.75;3.25;;;36.30;47.80;;;;;;5135503;27;20381;-87
2021/12/17 04:08:09;;;;;;;4.60;3.00;;;36.40;46.30;;;;;;5143793;27;20361;-86
2021/12/17 04:10:43;;;;;;;4.63;3.00;;;36.40;47.20;;;;;;5140354;27;20388;-86
2021/12/17 04:13:32;;;;;;;6.63;3.05;;;36.00;46.60;;;;;;5137324;27;20373;-90
2021/12/17 04:16:04;;;;;;;6.83;3.37;;;36.30;47.00;;;;;;5134823;27;20389;-89
2021/12/17 04:18:34;;;;;;;7.97;3.40;;;36.20;47.50;;;;;;5134163;27;20376;-91
2021/12/17 04:21:03;;;;;;;4.83;3.33;;;36.70;46.40;;;;;;5134291;27;20357;-89
2021/12/17 04:23:33;;;;;;;5.53;3.22;;;36.80;47.80;;;;;;5134184;27;20369;-87
2021/12/17 04:26:01;;;;;;;6.38;3.28;;;36.90;46.60;;;;;;5115750;27;20809;-92
2021/12/17 04:28:28;;;;;;;7.88;3.40;;;36.50;47.40;;;;;;5134153;27;20368;-85
2021/12/17 04:30:55;;;;;;;6.35;3.67;;;36.60;46.60;;;;;;5133818;27;20451;-86
2021/12/17 04:33:22;;;;;;;5.93;3.55;;;36.60;46.60;;;;;;5133590;27;20864;-86
2021/12/17 04:35:49;;;;;;;6.07;3.35;;;36.80;47.50;;;;;;5133852;27;20393;-90
2021/12/17 04:38:17;;;;;;;8.60;3.70;;;37.70;46.60;;;;;;5133786;27;20365;-88
2021/12/17 04:40:44;;;;;;;7.75;3.65;;;38.40;44.50;;;;;;5133881;27;20373;-88
2021/12/17 04:46:02;;;;;;;4.53;3.50;;;38.40;44.10;;;;;;5133367;27;20456;-89
2021/12/17 04:59:29;;;;;;;9.30;3.40;;;36.30;48.50;;;;;;5132900;27;20418;-85
2021/12/17 05:01:56;;;;;;;9.68;3.70;;;37.00;47.90;;;;;;5132521;27;20381;-84
2021/12/17 05:04:26;;;;;;;7.32;3.33;;;36.80;47.90;;;;;;5132310;27;20385;-84
2021/12/17 05:06:53;;;;;;;8.95;3.85;;;36.20;46.20;;;;;;5131422;27;20369;-86
2021/12/17 05:20:43;;;;;;;6.45;3.67;;;33.90;51.50;;;;;;5132838;27;20377;-87
2021/12/17 05:23:10;;;;;;;7.97;3.60;;;33.70;50.90;;;;;;5133051;27;20375;-87
2021/12/17 05:25:37;;;;;;;7.55;3.70;;;33.40;53.00;;;;;;5132860;27;20369;-88
2021/12/17 05:28:04;;;;;;;8.80;3.27;;;33.70;52.20;;;;;;5132673;27;20365;-88
2021/12/17 05:30:40;;;;;;;8.02;3.70;;;33.50;51.50;;;;;;5132713;27;20445;-88
2021/12/17 05:33:07;;;;;;;7.15;3.53;;;33.00;52.80;;;;;;5132732;27;20709;-88
2021/12/17 05:35:34;;;;;;;9.30;3.90;;;32.40;54.20;;;;;;5132463;27;20389;-88
2021/12/17 05:38:01;;;;;;;7.85;3.75;;;32.20;54.80;;;;;;5132275;27;20786;-88
2021/12/17 05:40:28;;;;;;;8.32;3.70;;;31.70;55.80;;;;;;5132194;27;20365;-87
2021/12/17 05:42:58;;;;;;;6.78;3.70;;;31.80;55.20;;;;;;5132299;27;20732;-88
2021/12/17 05:45:34;;;;;;;7.50;3.33;;;31.80;55.20;;;;;;5132335;27;20721;-90
2021/12/17 05:48:11;;;;;;;9.50;4.00;;;31.70;55.70;;;;;;5139244;27;20379;-88
2021/12/17 05:50:43;;;;;;;10.77;3.40;;;31.70;54.80;;;;;;5132355;27;20484;-87
2021/12/17 05:53:10;;;;;;;7.88;3.30;;;31.70;55.80;;;;;;5132280;27;20417;-87
2021/12/17 05:55:38;;;;;;;8.27;3.40;;;31.80;55.30;;;;;;5132266;27;20477;-87
2021/12/17 05:58:07;;;;;;;9.48;3.70;;;31.30;56.60;;;;;;5132044;27;20400;-88
2021/12/17 06:00:35;;;;;;;8.02;3.20;;;31.10;57.20;;;;;;5132230;27;20376;-89
2021/12/17 06:03:03;;;;;;;5.28;2.85;;;31.40;56.00;;;;;;5131024;27;20377;-90
2021/12/17 06:05:30;;;;;;;7.13;3.13;;;31.90;55.50;;;;;;5132144;27;20373;-87
2021/12/17 06:07:58;;;;;;;6.03;3.17;;;32.80;54.00;;;;;;5133636;27;20365;-87
2021/12/17 06:10:25;;;;;;;9.57;3.25;;;33.30;53.40;;;;;;5133098;27;20888;-90
2021/12/17 06:12:53;;;;;;;7.03;3.25;;;33.20;52.60;;;;;;5112770;27;20380;-89
2021/12/17 06:15:21;;;;;;;9.05;3.30;;;32.20;53.30;;;;;;5132250;27;20388;-90
2021/12/17 06:17:50;;;;;;;9.77;3.40;;;31.50;55.10;;;;;;5130911;27;20381;-87
2021/12/17 06:20:19;;;;;;;8.20;3.40;;;31.30;55.90;;;;;;5131103;27;20884;-88
2021/12/17 06:22:49;;;;;;;6.97;3.10;;;32.10;55.10;;;;;;5133071;27;20463;-87
2021/12/17 06:25:17;;;;;;;6.80;3.10;;;32.80;54.20;;;;;;5132679;27;21025;-88
2021/12/17 06:27:44;;;;;;;9.02;3.45;;;33.60;53.50;;;;;;5130188;27;20408;-89
2021/12/17 06:30:14;;;;;;;5.72;3.03;;;34.40;51.10;;;;;;5132320;27;20868;-88
2021/12/17 06:32:42;;;;;;;6.97;3.15;;;34.50;50.80;;;;;;5131192;27;20395;-88
2021/12/17 06:35:10;;;;;;;7.28;3.10;;;34.70;51.00;;;;;;5132049;27;20417;-89
2021/12/17 06:37:39;;;;;;;6.00;2.75;;;35.10;51.00;;;;;;5120218;27;20394;-94
2021/12/17 06:40:06;;;;;;;9.45;2.88;;;35.80;49.20;;;;;;5114660;28;20445;-90
2021/12/17 06:42:33;;;;;;;4.73;2.73;;;36.00;48.00;;;;;;5095278;28;20429;-88
2021/12/17 06:45:05;;;;;;;6.23;2.90;;;36.10;47.60;;;;;;5093662;28;20378;-90
2021/12/17 06:47:35;;;;;;;6.35;3.00;;;36.00;48.10;;;;;;5097903;28;20382;-89
2021/12/17 07:06:00;;;;;;;5.47;2.50;;;30.80;56.50;;;;;;5130946;27;20390;-91
2021/12/17 07:11:12;;;;;;;6.45;2.38;;;29.70;58.50;;;;;;5134080;28;20768;-91
2021/12/17 07:19:46;;;;;;;7.93;2.95;;;28.80;60.60;;;;;;5140312;27;20382;-89
2021/12/17 07:33:06;;;;;;;8.07;2.70;;;28.40;63.30;;;;;;5141870;27;20383;-88
2021/12/17 07:40:53;;;;;;;7.87;2.60;;;27.80;66.10;;;;;;5136240;27;20457;-88
2021/12/17 07:43:32;;;;;;;8.13;2.40;;;27.50;67.30;;;;;;5134744;27;20898;-88
2021/12/17 07:45:59;;;;;;;9.20;2.80;;;27.40;67.80;;;;;;5135037;27;20380;-92
2021/12/17 07:48:27;;;;;;;5.47;2.47;;;27.20;68.70;;;;;;5117074;27;20952;-89
2021/12/17 07:50:54;;;;;;;5.38;2.40;;;27.20;69.90;;;;;;5117419;27;20407;-85
2021/12/17 07:53:24;;;;;;;6.75;2.53;;;27.10;70.50;;;;;;5134418;27;20375;-90
2021/12/17 07:55:51;;;;;;;6.90;2.70;;;27.00;70.30;;;;;;5134806;27;20406;-86
2021/12/17 07:58:18;;;;;;;6.80;2.25;;;26.90;71.20;;;;;;5133746;27;20443;-90
2021/12/17 08:00:45;;;;;;;6.15;2.58;;;26.60;72.00;;;;;;5134027;27;20373;-86
2021/12/17 08:03:14;;;;;;;6.00;2.50;;;26.50;73.00;;;;;;5134063;27;20385;-88
2021/12/17 08:05:44;;;;;;;6.28;2.42;;;26.30;74.30;;;;;;5133125;27;20458;-89
2021/12/17 08:08:12;;;;;;;9.52;2.58;;;26.20;75.30;;;;;;5134177;27;20377;-90
2021/12/17 08:10:39;;;;;;;5.57;2.30;;;26.10;75.80;;;;;;5133814;27;20400;-87
2021/12/17 08:13:08;;;;;;;8.30;2.53;;;26.00;77.10;;;;;;5133783;27;20372;-87
2021/12/17 08:15:44;;;;;;;6.82;2.70;;;25.90;77.80;;;;;;5115086;27;20872;-88
2021/12/17 08:26:53;;;;;;;8.27;2.70;;;25.30;82.30;;;;;;5094825;27;20422;-89
2021/12/17 08:29:32;;;;;;;8.20;2.60;;;25.20;83.70;;;;;;5133883;27;20378;-95
2021/12/17 08:32:00;;;;;;;8.23;2.27;;;25.10;85.40;;;;;;5133370;27;20416;-87
2021/12/17 08:34:28;;;;;;;7.40;2.58;;;24.90;87.00;;;;;;5133610;27;20377;-88
2021/12/17 08:36:55;;;;;;;7.13;2.40;;;24.80;88.90;;;;;;5115828;27;20411;-89
2021/12/17 08:39:22;;;;;;;7.60;2.55;;;24.70;89.50;;;;;;5114969;27;20375;-88
2021/12/17 08:41:52;;;;;;;9.20;2.70;;;24.50;90.80;;;;;;5109883;27;20392;-89
2021/12/17 08:44:19;;;;;;;9.45;2.70;;;24.40;91.60;;;;;;5132202;27;20387;-87
2021/12/17 08:46:46;;;;;;;7.30;2.65;;;24.40;92.40;;;;;;5112045;28;20381;-88
2021/12/17 08:49:13;;;;;;;9.68;2.70;;;24.30;92.90;;;;;;5131273;27;20385;-86
2021/12/17 08:51:42;;;;;;;9.73;2.55;;;24.20;93.70;;;;;;5133906;27;20404;-86
2021/12/17 08:54:10;;;;;;;6.83;2.30;;;24.20;94.00;;;;;;5133312;27;20361;-86
2021/12/17 08:56:43;;;;;;;9.80;2.47;;;24.10;94.80;;;;;;5113864;27;20380;-87
2021/12/17 08:59:13;;;;;;;10.90;2.77;;;24.00;95.50;;;;;;5133224;27;20412;-88
2021/12/17 09:01:40;;;;;;;11.35;2.58;;;23.90;95.70;;;;;;5133372;27;20465;-85
2021/12/17 09:04:08;;;;;;;6.72;2.40;;;23.80;96.50;;;;;;5132832;27;20381;-86
2021/12/17 09:06:35;;;;;;;10.25;2.70;;;23.70;97.10;;;;;;5132851;27;20380;-86
2021/12/17 09:09:03;;;;;;;8.30;2.80;;;23.60;97.50;;;;;;5132814;27;20384;-86
2021/12/17 09:11:30;;;;;;;8.35;2.70;;;23.50;97.90;;;;;;5132091;27;20751;-87
2021/12/17 09:14:00;;;;;;;9.02;2.80;;;23.50;98.30;;;;;;5132027;27;20702;-86
2021/12/17 09:16:27;;;;;;;8.38;3.17;;;23.40;98.60;;;;;;5132695;27;20399;-86
2021/12/17 09:18:56;;;;;;;10.55;3.10;;;23.40;98.90;;;;;;5132616;27;20435;-86
2021/12/17 09:21:24;;;;;;;8.60;3.00;;;23.30;99.20;;;;;;5132881;27;20936;-87
2021/12/17 09:23:51;;;;;;;10.98;3.22;;;23.30;99.50;;;;;;5132482;27;20378;-85
2021/12/17 09:26:21;;;;;;;9.40;2.97;;;23.20;99.80;;;;;;5132866;27;20504;-87
2021/12/17 09:28:48;;;;;;;10.40;2.90;;;23.10;99.90;;;;;;5132701;27;20427;-87
2021/12/17 09:31:16;;;;;;;10.80;2.97;;;23.00;99.90;;;;;;5132426;27;20404;-88
2021/12/17 09:33:46;;;;;;;9.30;2.90;;;23.00;99.90;;;;;;5132512;27;20417;-86
2021/12/17 09:36:13;;;;;;;11.73;3.25;;;22.90;99.90;;;;;;5132618;27;20748;-85
2021/12/17 09:38:40;;;;;;;10.70;3.28;;;22.80;99.90;;;;;;5132735;27;20369;-86
2021/12/17 09:41:07;;;;;;;11.60;3.10;;;22.70;99.90;;;;;;5132649;27;20381;-89
2021/12/17 09:43:37;;;;;;;10.40;2.80;;;22.70;99.90;;;;;;5132714;27;20407;-92
2021/12/17 09:46:08;;;;;;;10.10;2.90;;;22.70;99.90;;;;;;5132847;27;20372;-90
2021/12/17 09:48:36;;;;;;;11.13;3.10;;;22.80;99.90;;;;;;5132405;27;20373;-91
2021/12/17 09:51:05;;;;;;;12.80;3.00;;;22.80;99.90;;;;;;5113246;27;20405;-90
2021/12/17 09:53:33;;;;;;;8.50;2.85;;;22.70;99.90;;;;;;5131106;27;20385;-89
2021/12/17 09:56:00;;;;;;;10.43;2.90;;;22.60;99.90;;;;;;5131644;27;20377;-88
2021/12/17 09:58:29;;;;;;;10.98;2.65;;;22.60;99.90;;;;;;5131861;27;20376;-89
2021/12/17 10:00:56;;;;;;;10.32;2.60;;;22.50;99.90;;;;;;5131698;27;20376;-88
2021/12/17 10:03:23;;;;;;;9.98;2.90;;;22.50;99.90;;;;;;5131955;27;20388;-90
2021/12/17 10:05:50;;;;;;;10.30;3.08;;;22.50;99.90;;;;;;5131595;27;20412;-88
2021/12/17 10:08:23;;;;;;;13.50;2.92;;;22.50;99.90;;;;;;5131536;27;20771;-89
2021/12/17 10:10:59;;;;;;;10.68;2.97;;;22.50;99.90;;;;;;5112387;27;20385;-88
2021/12/17 10:13:32;;;;;;;12.68;2.65;;;22.50;99.90;;;;;;5131354;27;20426;-88
2021/12/17 10:16:07;;;;;;;10.38;2.80;;;22.60;99.90;;;;;;5131478;27;20395;-88
2021/12/17 10:18:40;;;;;;;10.13;2.60;;;22.50;99.90;;;;;;5131518;27;20409;-87
2021/12/17 10:21:19;;;;;;;10.00;2.70;;;22.50;99.90;;;;;;5130900;27;20368;-88
2021/12/17 10:23:47;;;;;;;9.52;2.55;;;22.50;99.90;;;;;;5130959;27;20420;-87
2021/12/17 10:26:16;;;;;;;9.88;2.67;;;22.50;99.90;;;;;;5122967;27;20360;-87
2021/12/17 10:28:57;;;;;;;11.57;2.97;;;22.30;99.90;;;;;;5131661;27;20381;-86
2021/12/17 10:31:26;;;;;;;11.38;2.95;;;22.30;99.90;;;;;;5131458;27;20393;-87
2021/12/17 10:33:55;;;;;;;11.40;2.80;;;22.30;99.90;;;;;;5131146;27;20380;-86
2021/12/17 10:36:36;;;;;;;10.38;2.58;;;22.30;99.90;;;;;;5131220;27;20393;-88
2021/12/17 10:39:11;;;;;;;8.50;2.70;;;22.30;99.90;;;;;;5124477;27;20377;-87
2021/12/17 10:41:49;;;;;;;10.60;2.72;;;22.30;99.90;;;;;;5131537;27;20361;-88
2021/12/17 10:44:16;;;;;;;9.88;2.50;;;22.30;99.90;;;;;;5131310;27;20384;-87
2021/12/17 10:46:57;;;;;;;11.38;2.55;;;22.20;99.90;;;;;;5131589;27;20365;-88
2021/12/17 10:49:27;;;;;;;10.07;2.80;;;22.20;99.90;;;;;;5131502;27;20744;-87
2021/12/17 10:52:14;;;;;;;9.35;2.67;;;22.20;99.90;;;;;;5131147;27;20760;-88
2021/12/17 10:54:42;;;;;;;8.63;2.78;;;22.10;99.90;;;;;;5131582;27;20372;-89
2021/12/17 10:57:09;;;;;;;9.02;2.60;;;22.10;99.90;;;;;;5132493;27;20465;-89
2021/12/17 10:59:37;;;;;;;8.55;2.45;;;22.10;99.90;;;;;;5134380;27;20441;-88
2021/12/17 11:02:10;;;;;;;8.77;2.58;;;22.10;99.90;;;;;;5138132;27;20384;-89
2021/12/17 11:04:46;;;;;;;9.07;2.58;;;22.10;99.90;;;;;;5137277;27;20373;-88
2021/12/17 11:07:16;;;;;;;11.05;2.83;;;22.00;99.90;;;;;;5134975;27;20883;-88
2021/12/17 11:09:45;;;;;;;9.18;2.40;;;22.00;99.90;;;;;;5117206;27;20381;-88
2021/12/17 11:12:17;;;;;;;8.52;2.60;;;22.00;99.90;;;;;;5135455;27;20471;-88
2021/12/17 11:14:46;;;;;;;8.32;2.65;;;21.90;99.90;;;;;;5117455;27;20428;-89
2021/12/17 11:17:15;;;;;;;10.20;2.70;;;21.80;99.90;;;;;;5115989;27;20396;-87
2021/12/17 11:19:43;;;;;;;11.50;2.80;;;21.80;99.90;;;;;;5135122;27;20380;-86
2021/12/17 11:22:11;;;;;;;9.73;2.72;;;21.70;99.90;;;;;;5116504;27;20438;-85
2021/12/17 11:24:38;;;;;;;7.35;2.50;;;21.80;99.90;;;;;;5134942;27;20422;-86
2021/12/17 11:27:07;;;;;;;10.65;2.60;;;21.70;99.90;;;;;;5135200;27;20927;-85
2021/12/17 11:29:34;;;;;;;10.02;2.40;;;21.80;99.90;;;;;;5135241;27;20388;-85
2021/12/17 11:32:05;;;;;;;8.20;2.70;;;21.70;99.90;;;;;;5135652;27;20494;-86
2021/12/17 11:34:34;;;;;;;7.32;2.63;;;21.70;99.90;;;;;;5116776;27;20391;-85
2021/12/17 11:37:08;;;;;;;9.93;2.60;;;21.70;99.90;;;;;;5136829;27;20381;-86
2021/12/17 11:39:51;;;;;;;8.95;2.58;;;21.60;99.90;;;;;;5137079;27;20849;-86
2021/12/17 11:42:55;;;;;;;9.73;2.75;;;21.60;99.90;;;;;;5137581;27;20413;-87
2021/12/17 11:45:23;;;;;;;8.80;2.75;;;21.50;99.90;;;;;;5135799;27;20459;-86
2021/12/17 11:47:51;;;;;;;8.40;2.80;;;21.50;99.90;;;;;;5135657;27;20734;-86
2021/12/17 11:50:19;;;;;;;10.10;2.70;;;21.40;99.90;;;;;;5137257;27;20396;-86
2021/12/17 11:52:48;;;;;;;11.52;2.83;;;21.50;99.90;;;;;;5137704;27;20437;-85
2021/12/17 11:55:37;;;;;;;9.32;2.83;;;21.50;99.90;;;;;;5138644;27;20381;-85
2021/12/17 11:58:10;;;;;;;10.73;2.70;;;21.50;99.90;;;;;;5138186;27;20814;-85
2021/12/17 12:00:47;;;;;;;8.25;2.70;;;21.40;99.90;;;;;;5139996;27;20369;-86
2021/12/17 12:03:20;;;;;;;11.90;2.90;;;21.40;99.90;;;;;;5135493;27;20864;-85
2021/12/17 12:05:56;;;;;;;10.38;2.70;;;21.40;99.90;;;;;;5134463;27;20860;-85
2021/12/17 12:08:34;;;;;;;9.13;2.50;;;21.30;99.90;;;;;;5134460;27;20381;-85
2021/12/17 12:11:20;;;;;;;9.48;2.83;;;21.30;99.90;;;;;;5133702;27;20393;-85
2021/12/17 12:13:49;;;;;;;12.13;2.90;;;21.30;99.90;;;;;;5134051;27;20369;-84
2021/12/17 12:16:19;;;;;;;9.10;2.85;;;21.20;99.90;;;;;;5133640;27;20365;-85
2021/12/17 12:18:52;;;;;;;9.52;2.55;;;21.20;99.90;;;;;;5133712;27;20373;-83
2021/12/17 12:21:23;;;;;;;9.57;2.65;;;21.20;99.90;;;;;;5133994;27;20381;-84
2021/12/17 12:24:09;;;;;;;10.85;2.83;;;21.20;99.90;;;;;;5133320;27;20373;-85
2021/12/17 12:26:50;;;;;;;11.07;2.80;;;21.20;99.90;;;;;;5133317;27;20733;-85
2021/12/17 12:29:21;;;;;;;9.13;2.50;;;21.20;99.90;;;;;;5116891;27;20395;-84
2021/12/17 12:32:23;;;;;;;10.88;2.90;;;21.20;99.90;;;;;;5134037;27;20424;-84
2021/12/17 12:35:05;;;;;;;13.88;5.30;;;21.20;99.90;;;;;;5115989;27;20428;-84
2021/12/17 12:37:32;;;;;;;9.17;3.00;;;21.20;99.90;;;;;;5113629;27;20417;-85
2021/12/17 12:40:06;;;;;;;14.98;3.00;;;21.10;99.90;;;;;;5131806;27;20368;-85
2021/12/17 12:42:37;;;;;;;10.75;2.70;;;21.10;99.90;;;;;;5133382;27;20392;-85
2021/12/17 12:45:05;;;;;;;11.75;3.03;;;21.00;99.90;;;;;;5132804;27;20380;-84
2021/12/17 12:47:47;;;;;;;8.68;2.83;;;21.00;99.90;;;;;;5132372;27;20385;-84
2021/12/17 12:50:25;;;;;;;9.68;2.85;;;20.90;99.90;;;;;;5133384;27;20388;-84
2021/12/17 12:52:55;;;;;;;11.77;3.10;;;20.90;99.90;;;;;;5133331;27;20429;-84
2021/12/17 12:55:25;;;;;;;10.23;3.00;;;20.90;99.90;;;;;;5122576;27;20371;-84
2021/12/17 12:58:03;;;;;;;12.90;2.85;;;20.80;99.90;;;;;;5121506;27;20450;-84
2021/12/17 13:00:42;;;;;;;11.93;3.00;;;20.70;99.90;;;;;;5133080;27;20852;-85
2021/12/17 13:03:24;;;;;;;8.85;2.70;;;20.70;99.90;;;;;;5133200;27;20377;-85
2021/12/17 13:05:52;;;;;;;11.55;3.10;;;20.60;99.90;;;;;;5132315;27;21062;-85
2021/12/17 13:08:21;;;;;;;10.35;3.00;;;20.60;99.90;;;;;;5114079;27;20881;-84
2021/12/17 13:10:58;;;;;;;9.43;3.05;;;20.60;99.90;;;;;;5132559;27;20401;-85
2021/12/17 13:13:36;;;;;;;10.75;3.00;;;20.60;99.90;;;;;;5132895;27;20365;-86
2021/12/17 13:16:21;;;;;;;13.30;3.20;;;20.60;99.90;;;;;;5132592;27;20377;-84
2021/12/17 13:24:16;;;;;;;10.35;2.70;;;20.50;99.90;;;;;;5112445;28;20458;-85
2021/12/17 13:26:49;;;;;;;15.00;3.00;;;20.50;99.90;;;;;;5128416;27;20384;-86
2021/12/17 13:29:32;;;;;;;11.57;3.05;;;20.40;99.90;;;;;;5132813;27;20359;-85
2021/12/17 13:32:10;;;;;;;10.10;2.95;;;20.40;99.90;;;;;;5132260;27;20397;-85
2021/12/17 13:34:37;;;;;;;14.37;3.13;;;20.40;99.90;;;;;;5131992;27;20377;-85
2021/12/17 13:37:16;;;;;;;8.13;2.90;;;20.30;99.90;;;;;;5132361;27;20404;-85
2021/12/17 13:39:50;;;;;;;9.93;3.00;;;20.30;99.90;;;;;;5113411;27;20820;-86
2021/12/17 13:42:24;;;;;;;8.05;2.92;;;20.30;99.90;;;;;;5119910;27;20384;-87
2021/12/17 13:44:54;;;;;;;13.20;3.10;;;20.30;99.90;;;;;;5131852;27;20384;-85
2021/12/17 13:47:24;;;;;;;10.57;2.80;;;20.20;99.90;;;;;;5125896;27;20369;-86
2021/12/17 13:49:54;;;;;;;10.00;3.13;;;20.20;99.90;;;;;;5112725;27;20854;-86
2021/12/17 13:52:26;;;;;;;14.23;3.38;;;20.20;99.90;;;;;;5131799;27;20384;-85
2021/12/17 13:54:54;;;;;;;10.75;3.10;;;20.10;99.90;;;;;;5132158;27;20373;-86
2021/12/17 13:57:25;;;;;;;8.93;3.13;;;20.10;99.90;;;;;;5131619;27;20445;-86
2021/12/17 14:00:10;;;;;;;10.25;3.35;;;20.10;99.90;;;;;;5131612;27;20365;-85
2021/12/17 14:02:39;;;;;;;9.30;3.10;;;20.10;99.90;;;;;;5126690;27;20383;-85
2021/12/17 14:05:28;;;;;;;10.07;3.10;;;20.10;99.90;;;;;;5107726;27;20373;-85
2021/12/17 14:07:58;;;;;;;11.40;3.08;;;20.00;99.90;;;;;;5130474;27;20883;-85
2021/12/17 14:10:31;;;;;;;12.65;3.28;;;20.00;99.90;;;;;;5131949;27;20392;-85
2021/12/17 14:12:59;;;;;;;13.20;2.90;;;20.00;99.90;;;;;;5130469;27;20397;-85
2021/12/17 14:15:30;;;;;;;10.60;3.10;;;20.00;99.90;;;;;;5131600;27;20463;-85
2021/12/17 14:18:08;;;;;;;11.35;3.00;;;20.00;99.90;;;;;;5127887;27;20407;-85
2021/12/17 14:20:44;;;;;;;11.30;3.00;;;19.90;99.90;;;;;;5127649;27;20448;-86
2021/12/17 14:23:19;;;;;;;9.93;2.80;;;19.90;99.90;;;;;;5127950;27;20401;-85
2021/12/17 14:25:53;;;;;;;11.85;3.20;;;19.90;99.90;;;;;;5128107;27;20395;-85
2021/12/17 14:28:27;;;;;;;10.45;2.88;;;19.80;99.90;;;;;;5127479;27;20386;-85
2021/12/17 14:31:16;;;;;;;10.80;2.95;;;19.80;99.90;;;;;;5127416;27;20483;-85
2021/12/17 14:33:57;;;;;;;8.10;3.10;;;19.80;99.90;;;;;;5109200;27;20410;-85
2021/12/17 14:36:38;;;;;;;11.07;3.50;;;19.80;99.90;;;;;;5110300;27;20396;-85
2021/12/17 14:39:14;;;;;;;9.60;3.20;;;19.70;99.90;;;;;;5128695;27;20385;-85
2021/12/17 14:42:00;;;;;;;11.23;3.67;;;19.70;99.90;;;;;;5109217;27;20854;-85
2021/12/17 14:44:43;;;;;;;12.55;3.63;;;19.70;99.90;;;;;;5146557;27;20420;-84
2021/12/17 14:47:20;;;;;;;11.17;3.60;;;19.70;99.90;;;;;;5126651;27;20426;-85
2021/12/17 15:03:48;;;;;;;9.48;2.92;;;19.50;99.90;;;;;;5126654;27;20383;-85
2021/12/17 15:05:58;;;;;;;12.15;3.08;;;19.50;99.90;;;;;;5115792;27;20393;-86
2021/12/17 15:08:27;;;;;;;10.87;3.10;;;19.60;99.90;;;;;;5126915;27;20714;-86
2021/12/17 15:10:54;;;;;;;10.88;3.00;;;19.50;99.90;;;;;;5108299;28;20388;-85
2021/12/17 15:13:21;;;;;;;10.65;3.15;;;19.50;99.90;;;;;;5127059;27;20408;-85
2021/12/17 15:15:48;;;;;;;11.05;3.30;;;19.50;99.90;;;;;;5126568;27;20373;-85
2021/12/17 15:18:19;;;;;;;10.77;3.00;;;19.50;99.90;;;;;;5126704;27;20381;-85
2021/12/17 15:20:56;;;;;;;11.35;3.05;;;19.50;99.90;;;;;;5126762;27;20388;-85
2021/12/17 15:23:24;;;;;;;12.27;3.08;;;19.40;99.90;;;;;;5126525;27;20390;-86
2021/12/17 15:25:52;;;;;;;11.77;3.50;;;19.40;99.90;;;;;;5126515;27;20373;-85
2021/12/17 15:28:22;;;;;;;9.82;3.28;;;19.40;99.90;;;;;;5126925;27;20388;-86
2021/12/17 15:30:52;;;;;;;13.13;3.38;;;19.40;99.90;;;;;;5126827;28;20396;-85
2021/12/17 15:33:20;;;;;;;9.85;3.10;;;19.40;99.90;;;;;;5126350;28;20410;-85
2021/12/17 15:35:49;;;;;;;11.30;3.50;;;19.40;99.90;;;;;;5126434;27;20396;-85
2021/12/17 15:38:17;;;;;;;14.38;3.80;;;19.30;99.90;;;;;;5122574;27;20779;-85
2021/12/17 15:40:47;;;;;;;11.88;4.00;;;19.30;99.90;;;;;;5126922;28;20381;-84
2021/12/17 15:43:15;;;;;;;12.38;3.78;;;19.30;99.90;;;;;;5126870;27;20434;-84
2021/12/17 15:45:44;;;;;;;14.77;4.03;;;19.30;99.90;;;;;;5126519;27;20419;-84
2021/12/17 15:48:14;;;;;;;15.93;4.18;;;19.30;99.90;;;;;;5140995;27;21253;-84
2021/12/17 15:50:42;;;;;;;15.75;3.95;;;19.30;99.90;;;;;;5130837;27;20431;-84
2021/12/17 15:53:09;;;;;;;13.53;3.90;;;18.40;99.90;;;;;;5147656;27;20381;-84
2021/12/17 15:55:43;;;;;;;16.23;3.67;;;19.20;99.90;;;;;;5130508;27;20365;-84
2021/12/17 15:58:10;;;;;;;14.13;3.65;;;19.20;99.90;;;;;;5110250;28;20378;-84
2021/12/17 16:00:39;;;;;;;16.92;3.90;;;19.20;99.90;;;;;;5130327;27;20924;-84
2021/12/17 16:03:08;;;;;;;16.80;3.50;;;19.20;99.90;;;;;;5129633;27;20381;-84
2021/12/17 16:05:37;;;;;;;9.82;3.50;;;19.20;99.90;;;;;;5130662;27;20475;-84
2021/12/17 16:08:05;;;;;;;10.27;3.17;;;19.20;99.90;;;;;;5129975;27;20380;-84
2021/12/17 16:21:00;;;;;;;12.57;3.53;;;19.10;99.90;;;;;;5135229;27;20451;-85
2021/12/17 16:21:34;;;;;;;10.15;3.70;;;19.10;99.90;;;;;;5124390;27;20377;-85